MSC Azov — 9HA3457 — position and weather

sailwx.info

Track history (hours):
 
Tides and Currents Weather Stations Pressure Air Temp Water Temp Dewpoint Dewpoint Depression Visibility Wind Speed Wind Dir Waves Ship Positions

MSC Azov

Last reported at 2018-Jun-07 11:01 UTC. Time now 2018-Jun-24 09:12 UTC.
Position S 24°42' W 046°48'.
Warning: this ship's position is 16 days out of date.

Length 300 m; draft 9.6 m.

Type: Ship (hazmat cat A). MMSI: 229620000.

Date/timePositionNaut miles runAvg speedWind from/ knotsBaromVisibWave heightAir tempDewpointWater temp
2018-Jun-07 11:01S 24°42' W 046°48'111.4
2018-Jun-07 10:57S 24°41' W 046°47'511.4
2018-Jun-07 10:29S 24°37' W 046°43'511.5
2018-Jun-07 10:00S 24°34' W 046°38'611.4
2018-Jun-07 09:30S 24°30' W 046°34'611.4
2018-Jun-07 09:00S 24°26' W 046°29'611.4
2018-Jun-07 08:30S 24°21' W 046°27'611.5
2018-Jun-07 08:00S 24°15' W 046°25'611.5
2018-Jun-07 07:30S 24°09' W 046°24'611.7
2018-Jun-07 06:57S 24°03' W 046°21'4 9.4
2018-Jun-07 06:30S 23°60' W 046°19'5 0.5
2018-Jun-06 21:56S 23°55' W 046°21'0 0.0
2018-Jun-06 05:38S 23°55' W 046°21'0 0.0
2018-Jun-06 05:25S 23°55' W 046°21'3 2.3
2018-Jun-06 04:11S 23°57' W 046°19'2 8.6
2018-Jun-06 03:59S 23°58' W 046°18'3 7.1
2018-Jun-06 03:30S 24°01' W 046°20'5 9.5
2018-Jun-06 03:00S 24°05' W 046°22'510.5
2018-Jun-06 02:30S 24°10' W 046°24'1 1.3
2018-Jun-06 02:00S 24°11' W 046°24'0 0.8
2018-Jun-06 01:30S 24°11' W 046°24'1 1.1
2018-Jun-06 01:00S 24°11' W 046°24'1 2.6
2018-Jun-06 00:30S 24°12' W 046°23'510.4
2018-Jun-06 00:00S 24°17' W 046°20'510.3
2018-Jun-05 23:30S 24°16' W 046°14'611.4
2018-Jun-05 23:00S 24°15' W 046°08'714.1
2018-Jun-05 22:30S 24°15' W 046°01'714.5
2018-Jun-05 22:00S 24°14' W 045°53'  
Track history (hours):
 
Tides and Currents Weather Stations Pressure Air Temp Water Temp Dewpoint Dewpoint Depression Visibility Wind Speed Wind Dir Waves Ship Positions

MSC Azov

Last reported at 2018-Jun-07 11:01 UTC. Time now 2018-Jun-24 09:12 UTC.
Position S 24°42' W 046°48'.
Warning: this ship's position is 16 days out of date.

Length 300 m; draft 9.6 m.

Type: Ship (hazmat cat A). MMSI: 229620000.

Date/timePositionNaut miles runAvg speedWind from/ knotsBaromVisibWave heightAir tempDewpointWater temp
2018-Jun-07 11:01S 24°42' W 046°48'111.4
2018-Jun-07 10:57S 24°41' W 046°47'511.4
2018-Jun-07 10:29S 24°37' W 046°43'511.5
2018-Jun-07 10:00S 24°34' W 046°38'611.4
2018-Jun-07 09:30S 24°30' W 046°34'611.4
2018-Jun-07 09:00S 24°26' W 046°29'611.4
2018-Jun-07 08:30S 24°21' W 046°27'611.5
2018-Jun-07 08:00S 24°15' W 046°25'611.5
2018-Jun-07 07:30S 24°09' W 046°24'611.7
2018-Jun-07 06:57S 24°03' W 046°21'4 9.4
2018-Jun-07 06:30S 23°60' W 046°19'5 0.5
2018-Jun-06 21:56S 23°55' W 046°21'0 0.0
2018-Jun-06 05:38S 23°55' W 046°21'0 0.0
2018-Jun-06 05:25S 23°55' W 046°21'3 2.3
2018-Jun-06 04:11S 23°57' W 046°19'2 8.6
2018-Jun-06 03:59S 23°58' W 046°18'3 7.1
2018-Jun-06 03:30S 24°01' W 046°20'5 9.5
2018-Jun-06 03:00S 24°05' W 046°22'510.5
2018-Jun-06 02:30S 24°10' W 046°24'1 1.3
2018-Jun-06 02:00S 24°11' W 046°24'0 0.8
2018-Jun-06 01:30S 24°11' W 046°24'1 1.1
2018-Jun-06 01:00S 24°11' W 046°24'1 2.6
2018-Jun-06 00:30S 24°12' W 046°23'510.4
2018-Jun-06 00:00S 24°17' W 046°20'510.3
2018-Jun-05 23:30S 24°16' W 046°14'611.4
2018-Jun-05 23:00S 24°15' W 046°08'714.1
2018-Jun-05 22:30S 24°15' W 046°01'714.5
2018-Jun-05 22:00S 24°14' W 045°53'  

Dump ship's entire track history